Time;durP1;ratioP1;P1;durP2;ratioP2;P2;SDS_P1;SDS_P2;PMS_P1;PMS_P2;Temp;Humidity;BMP_temperature;BMP_pressure;BME280_temperature;BME280_humidity;BME280_pressure;Samples;Min_cycle;Max_cycle;Signal;HPM_P1;HPM_P2
2021/12/21 00:02:12;;;;;;;21.60;11.02;;;;;;;;;;5011484;28;20052;-65
2021/12/21 00:04:38;;;;;;;18.30;10.48;;;;;;;;;;5012007;28;20046;-65
2021/12/21 00:07:05;;;;;;;18.77;10.38;;;;;;;;;;5012270;28;20049;-65
2021/12/21 00:09:31;;;;;;;19.27;10.82;;;;;;;;;;5011242;28;20096;-65
2021/12/21 00:11:59;;;;;;;20.48;10.85;;;;;;;;;;5012148;28;20124;-65
2021/12/21 00:14:43;;;;;;;18.20;9.75;;;;;;;;;;5011963;28;20444;-65
2021/12/21 00:20:04;;;;;;;17.67;9.10;;;;;;;;;;5011864;28;20052;-65
2021/12/21 00:23:12;;;;;;;13.07;8.23;;;;;;;;;;5011817;28;20104;-65
2021/12/21 00:25:23;;;;;;;16.33;7.20;;;;;;;;;;5010845;28;20072;-66
2021/12/21 00:27:52;;;;;;;12.38;6.72;;;;;;;;;;5011814;28;20046;-65
2021/12/21 00:30:18;;;;;;;9.05;6.20;;;;;;;;;;5011743;28;20041;-65
2021/12/21 00:32:44;;;;;;;13.75;6.10;;;;;;;;;;5011199;28;20038;-65
2021/12/21 00:35:10;;;;;;;10.32;6.32;;;;;;;;;;5011892;28;20539;-66
2021/12/21 00:37:40;;;;;;;12.35;6.45;;;;;;;;;;5011519;28;20125;-65
2021/12/21 00:40:07;;;;;;;12.95;6.82;;;;;;;;;;5011050;28;20050;-65
2021/12/21 00:42:33;;;;;;;10.45;6.22;;;;;;;;;;5011314;28;20046;-65
2021/12/21 00:44:59;;;;;;;13.25;6.78;;;;;;;;;;5011701;28;20046;-65
2021/12/21 00:47:25;;;;;;;10.75;6.13;;;;;;;;;;5011173;28;20547;-65
2021/12/21 00:49:59;;;;;;;8.82;6.05;;;;;;;;;;5011465;28;20046;-65
2021/12/21 00:52:25;;;;;;;11.05;5.82;;;;;;;;;;5011417;28;20045;-65
2021/12/21 00:54:51;;;;;;;13.65;6.60;;;;;;;;;;5011062;28;20041;-65
2021/12/21 00:57:17;;;;;;;17.23;6.45;;;;;;;;;;5012657;28;20041;-65
2021/12/21 00:59:44;;;;;;;13.98;7.13;;;;;;;;;;5015832;28;20038;-65
2021/12/21 01:02:10;;;;;;;19.52;7.35;;;;;;;;;;5014865;28;20055;-66
2021/12/21 01:04:42;;;;;;;16.02;8.30;;;;;;;;;;4997947;28;20050;-65
2021/12/21 01:12:48;;;;;;;16.67;9.23;;;;;;;;;;4971195;28;20073;-65
2021/12/21 01:17:55;;;;;;;20.25;9.60;;;;;;;;;;5014655;28;20183;-65
2021/12/21 01:20:39;;;;;;;22.60;10.68;;;;;;;;;;5015065;28;20172;-65
2021/12/21 01:23:31;;;;;;;21.55;10.52;;;;;;;;;;5014159;28;20072;-65
2021/12/21 01:26:02;;;;;;;19.05;9.88;;;;;;;;;;5014607;28;20042;-65
2021/12/21 01:39:59;;;;;;;19.25;11.07;;;;;;;;;;4934033;29;20096;-65
2021/12/21 01:50:21;;;;;;;23.60;12.73;;;;;;;;;;5014653;28;20121;-65
2021/12/21 01:52:47;;;;;;;25.63;12.70;;;;;;;;;;5014162;28;20065;-65
2021/12/21 01:55:13;;;;;;;26.27;12.55;;;;;;;;;;5014531;28;20123;-65
2021/12/21 01:57:39;;;;;;;22.92;11.50;;;;;;;;;;5014566;28;20129;-66
2021/12/21 02:00:07;;;;;;;25.70;11.98;;;;;;;;;;5013687;28;20045;-65
2021/12/21 02:02:33;;;;;;;20.95;12.45;;;;;;;;;;5013374;28;20053;-65
2021/12/21 02:04:59;;;;;;;24.67;11.98;;;;;;;;;;5014197;28;20056;-65
2021/12/21 02:07:25;;;;;;;26.23;12.07;;;;;;;;;;5013477;28;20037;-65
2021/12/21 02:09:51;;;;;;;27.40;12.70;;;;;;;;;;5013213;28;20069;-66
2021/12/21 02:12:18;;;;;;;26.27;11.38;;;;;;;;;;5014342;28;20053;-65
2021/12/21 02:14:52;;;;;;;24.13;12.07;;;;;;;;;;5013563;28;20048;-65
2021/12/21 02:20:09;;;;;;;23.13;11.13;;;;;;;;;;5014242;28;20042;-65
2021/12/21 02:22:41;;;;;;;20.88;10.95;;;;;;;;;;5013151;28;20077;-65
2021/12/21 02:30:21;;;;;;;20.55;10.52;;;;;;;;;;5002794;28;20053;-65
2021/12/21 02:32:48;;;;;;;18.95;10.20;;;;;;;;;;4996389;28;20045;-65
2021/12/21 02:35:14;;;;;;;18.92;10.13;;;;;;;;;;5013833;28;20552;-66
2021/12/21 02:37:40;;;;;;;20.13;9.85;;;;;;;;;;5013274;28;20180;-65
2021/12/21 02:40:07;;;;;;;20.88;9.23;;;;;;;;;;5013858;28;20396;-65
2021/12/21 02:42:33;;;;;;;13.88;8.98;;;;;;;;;;5013252;28;20050;-65
2021/12/21 02:44:59;;;;;;;15.63;9.25;;;;;;;;;;5012795;28;20042;-66
2021/12/21 02:47:25;;;;;;;14.38;8.02;;;;;;;;;;4996120;28;20052;-65
2021/12/21 02:49:51;;;;;;;14.02;8.18;;;;;;;;;;5013627;28;20037;-65
2021/12/21 02:52:17;;;;;;;13.32;8.65;;;;;;;;;;5012992;28;20034;-65
2021/12/21 02:54:43;;;;;;;14.43;9.30;;;;;;;;;;5013218;28;20082;-65
2021/12/21 02:57:09;;;;;;;14.30;8.73;;;;;;;;;;5013619;28;20037;-65
2021/12/21 02:59:35;;;;;;;15.10;9.00;;;;;;;;;;5012692;28;20049;-65
2021/12/21 03:02:02;;;;;;;16.92;8.93;;;;;;;;;;5013212;28;20041;-65
2021/12/21 03:04:28;;;;;;;16.45;8.75;;;;;;;;;;5013464;28;20038;-66
2021/12/21 03:14:36;;;;;;;15.40;8.27;;;;;;;;;;5012250;28;20046;-65
2021/12/21 03:17:03;;;;;;;14.15;8.85;;;;;;;;;;5013409;28;20038;-65
2021/12/21 03:19:29;;;;;;;14.48;8.63;;;;;;;;;;5012816;28;20429;-65
2021/12/21 03:21:55;;;;;;;15.48;9.30;;;;;;;;;;5012044;28;20050;-65
2021/12/21 03:24:21;;;;;;;18.65;9.70;;;;;;;;;;5013056;28;20038;-65
2021/12/21 03:26:47;;;;;;;14.15;8.93;;;;;;;;;;5012841;28;20125;-65
2021/12/21 03:29:14;;;;;;;17.48;9.15;;;;;;;;;;5012120;28;20077;-65
2021/12/21 03:31:40;;;;;;;15.90;8.57;;;;;;;;;;5012853;28;20077;-65
2021/12/21 03:34:06;;;;;;;15.45;8.90;;;;;;;;;;5012585;28;20074;-65
2021/12/21 03:36:33;;;;;;;18.58;9.32;;;;;;;;;;5012262;28;20096;-65
2021/12/21 03:39:05;;;;;;;15.23;8.18;;;;;;;;;;4995201;28;20045;-65
2021/12/21 03:41:31;;;;;;;;;;;;;;;;;;5013091;28;20064;-65
2021/12/21 03:44:00;;;;;;;15.95;8.50;;;;;;;;;;5011967;28;19921;-65
2021/12/21 03:46:27;;;;;;;13.38;8.35;;;;;;;;;;5012436;28;20054;-65
2021/12/21 03:48:53;;;;;;;19.98;9.05;;;;;;;;;;5012618;28;20128;-65
2021/12/21 03:51:20;;;;;;;20.23;9.68;;;;;;;;;;5011487;28;20042;-65
2021/12/21 03:53:47;;;;;;;21.55;9.77;;;;;;;;;;5012339;28;20073;-65
2021/12/21 03:58:55;;;;;;;17.38;8.50;;;;;;;;;;5011631;28;20100;-65
2021/12/21 04:01:21;;;;;;;16.25;8.70;;;;;;;;;;5012453;28;20468;-65
2021/12/21 04:03:47;;;;;;;18.08;9.43;;;;;;;;;;5011882;28;20073;-65
2021/12/21 04:06:13;;;;;;;15.23;9.77;;;;;;;;;;5011501;28;20121;-65
2021/12/21 04:08:39;;;;;;;17.17;9.70;;;;;;;;;;5012427;28;20041;-65
2021/12/21 04:11:05;;;;;;;14.65;9.48;;;;;;;;;;5012160;28;20041;-65
2021/12/21 04:13:32;;;;;;;17.92;9.85;;;;;;;;;;4994047;28;20133;-66
2021/12/21 04:16:00;;;;;;;20.05;10.05;;;;;;;;;;5012091;28;20100;-65
2021/12/21 04:18:27;;;;;;;17.92;10.68;;;;;;;;;;5011715;28;20100;-65
2021/12/21 04:20:53;;;;;;;21.00;10.13;;;;;;;;;;5011630;28;20033;-66
2021/12/21 04:23:19;;;;;;;19.95;9.43;;;;;;;;;;5011815;28;20063;-65
2021/12/21 04:25:45;;;;;;;15.90;10.27;;;;;;;;;;5011966;28;20045;-65
2021/12/21 04:28:11;;;;;;;18.95;10.45;;;;;;;;;;5011287;28;20481;-65
2021/12/21 04:30:38;;;;;;;17.08;9.45;;;;;;;;;;4994121;28;20493;-65
2021/12/21 04:33:04;;;;;;;15.82;9.25;;;;;;;;;;4993457;28;20077;-65
2021/12/21 04:35:30;;;;;;;19.20;9.38;;;;;;;;;;5010892;28;20049;-65
2021/12/21 04:38:00;;;;;;;20.83;9.70;;;;;;;;;;5011685;28;20302;-65
2021/12/21 04:40:39;;;;;;;20.50;10.02;;;;;;;;;;5011642;28;20038;-65
2021/12/21 04:43:06;;;;;;;19.95;8.93;;;;;;;;;;5010825;28;20489;-65
2021/12/21 04:45:32;;;;;;;15.18;8.80;;;;;;;;;;4993727;28;20041;-65
2021/12/21 04:47:58;;;;;;;15.98;9.20;;;;;;;;;;5011396;28;20041;-66
2021/12/21 04:50:24;;;;;;;19.73;8.90;;;;;;;;;;5010585;28;20046;-65
2021/12/21 04:52:50;;;;;;;15.63;8.48;;;;;;;;;;5011684;28;20038;-65
2021/12/21 04:55:16;;;;;;;16.63;9.32;;;;;;;;;;5011259;28;20077;-65
2021/12/21 04:57:43;;;;;;;14.77;7.85;;;;;;;;;;4993164;28;20099;-65
2021/12/21 05:00:10;;;;;;;14.15;8.13;;;;;;;;;;4994042;28;20096;-65
2021/12/21 05:02:36;;;;;;;17.38;8.00;;;;;;;;;;5011415;28;20384;-65
2021/12/21 05:05:02;;;;;;;14.88;7.93;;;;;;;;;;5010677;28;20057;-65
2021/12/21 05:07:30;;;;;;;15.35;7.72;;;;;;;;;;5011460;28;20120;-65
2021/12/21 05:09:58;;;;;;;17.10;7.97;;;;;;;;;;5011265;28;20524;-65
2021/12/21 05:12:24;;;;;;;16.35;7.35;;;;;;;;;;5010844;28;20046;-65
2021/12/21 05:14:50;;;;;;;12.75;6.82;;;;;;;;;;5011344;28;20041;-65
2021/12/21 05:17:16;;;;;;;10.50;5.88;;;;;;;;;;5011356;28;20137;-65
2021/12/21 05:19:43;;;;;;;20.73;7.07;;;;;;;;;;5010743;28;20042;-65
2021/12/21 05:22:09;;;;;;;11.73;6.40;;;;;;;;;;5011138;28;20057;-65
2021/12/21 05:24:35;;;;;;;10.15;6.00;;;;;;;;;;4993682;28;20042;-65
2021/12/21 05:27:01;;;;;;;9.70;6.45;;;;;;;;;;5010731;28;20125;-65
2021/12/21 05:29:27;;;;;;;10.75;5.45;;;;;;;;;;5011085;28;20133;-65
2021/12/21 05:31:53;;;;;;;10.50;5.88;;;;;;;;;;5011152;28;20397;-65
2021/12/21 05:34:19;;;;;;;11.75;5.93;;;;;;;;;;5011079;28;20068;-65
2021/12/21 05:36:45;;;;;;;12.70;5.97;;;;;;;;;;5010964;28;20045;-65
2021/12/21 05:39:19;;;;;;;13.52;6.78;;;;;;;;;;5011338;28;20073;-65
2021/12/21 05:41:51;;;;;;;14.55;7.22;;;;;;;;;;5011034;28;20543;-65
2021/12/21 05:44:19;;;;;;;11.27;7.10;;;;;;;;;;5013343;28;20570;-65
2021/12/21 05:46:45;;;;;;;9.70;6.45;;;;;;;;;;5014756;28;20069;-65
2021/12/21 05:49:11;;;;;;;11.05;5.78;;;;;;;;;;4996694;28;20054;-65
2021/12/21 05:51:37;;;;;;;12.23;6.15;;;;;;;;;;5014334;28;20045;-65
2021/12/21 05:54:03;;;;;;;10.93;5.75;;;;;;;;;;5014552;28;20038;-66
2021/12/21 05:56:29;;;;;;;10.77;6.30;;;;;;;;;;5014726;28;20037;-65
2021/12/21 05:58:55;;;;;;;10.05;5.78;;;;;;;;;;5013689;28;20095;-65
2021/12/21 06:01:21;;;;;;;11.07;5.70;;;;;;;;;;5014695;28;20073;-65
2021/12/21 06:03:47;;;;;;;10.57;5.40;;;;;;;;;;5014312;28;20488;-65
2021/12/21 06:06:16;;;;;;;8.82;5.05;;;;;;;;;;5013743;28;20042;-65
2021/12/21 06:08:44;;;;;;;10.35;5.60;;;;;;;;;;4996650;28;20045;-65
2021/12/21 06:11:10;;;;;;;10.80;5.25;;;;;;;;;;5014026;28;20113;-65
2021/12/21 06:27:21;;;;;;;13.93;5.55;;;;;;;;;;4932955;29;20059;-65
2021/12/21 06:29:47;;;;;;;12.07;6.00;;;;;;;;;;4996932;28;20050;-65
2021/12/21 06:32:14;;;;;;;10.70;5.65;;;;;;;;;;5013841;28;20427;-65
2021/12/21 06:34:40;;;;;;;11.55;5.10;;;;;;;;;;5013226;28;20072;-65
2021/12/21 06:37:06;;;;;;;8.77;5.20;;;;;;;;;;5014134;28;20041;-65
2021/12/21 06:39:33;;;;;;;9.50;5.88;;;;;;;;;;5013917;28;20423;-65
2021/12/21 06:42:00;;;;;;;12.82;5.80;;;;;;;;;;5013078;28;20073;-65
2021/12/21 06:44:26;;;;;;;7.63;5.18;;;;;;;;;;5013596;28;20038;-65
2021/12/21 06:51:08;;;;;;;14.23;5.82;;;;;;;;;;5013705;28;20033;-65
2021/12/21 06:52:35;;;;;;;15.40;6.22;;;;;;;;;;5013620;28;20056;-65
2021/12/21 06:55:01;;;;;;;10.80;5.88;;;;;;;;;;5012780;28;20072;-65
2021/12/21 06:57:27;;;;;;;13.77;6.18;;;;;;;;;;5012933;28;20042;-65
2021/12/21 06:59:53;;;;;;;12.57;6.43;;;;;;;;;;5012958;28;20068;-65
2021/12/21 07:02:19;;;;;;;14.32;6.47;;;;;;;;;;4995231;28;20198;-66
2021/12/21 07:04:45;;;;;;;12.85;7.40;;;;;;;;;;5012639;28;20073;-65
2021/12/21 07:07:12;;;;;;;13.73;6.07;;;;;;;;;;5012978;28;20037;-65
2021/12/21 07:09:43;;;;;;;14.50;6.40;;;;;;;;;;5013231;28;20660;-65
2021/12/21 07:20:13;;;;;;;17.20;7.82;;;;;;;;;;5012416;28;20045;-65
2021/12/21 07:22:40;;;;;;;13.55;7.18;;;;;;;;;;5012771;28;20385;-65
2021/12/21 07:25:06;;;;;;;11.85;7.10;;;;;;;;;;5012705;28;20038;-65
2021/12/21 07:27:32;;;;;;;14.77;8.07;;;;;;;;;;5012049;28;20042;-65
2021/12/21 07:29:58;;;;;;;15.18;7.68;;;;;;;;;;5011757;28;20057;-64
2021/12/21 07:32:24;;;;;;;13.65;8.35;;;;;;;;;;5005878;28;20381;-64
2021/12/21 07:34:50;;;;;;;13.38;7.60;;;;;;;;;;5003366;28;20041;-64
2021/12/21 07:37:16;;;;;;;16.50;8.77;;;;;;;;;;4994469;28;20092;-65
2021/12/21 07:39:42;;;;;;;15.90;7.95;;;;;;;;;;5008554;28;20376;-65
2021/12/21 07:42:08;;;;;;;16.88;8.35;;;;;;;;;;5004562;28;20099;-65
2021/12/21 07:44:34;;;;;;;14.13;8.02;;;;;;;;;;5010778;28;20072;-65
2021/12/21 07:47:00;;;;;;;14.02;7.78;;;;;;;;;;5011990;28;20049;-62
2021/12/21 07:49:27;;;;;;;15.32;7.97;;;;;;;;;;5010715;28;20040;-63
2021/12/21 07:51:53;;;;;;;15.35;7.60;;;;;;;;;;5011101;28;20033;-64
2021/12/21 07:54:19;;;;;;;12.25;7.07;;;;;;;;;;5010504;28;20380;-63
2021/12/21 07:56:45;;;;;;;14.55;6.85;;;;;;;;;;5010385;28;20045;-65
2021/12/21 07:59:11;;;;;;;11.13;6.80;;;;;;;;;;5011409;28;20034;-64
2021/12/21 08:01:38;;;;;;;11.77;6.65;;;;;;;;;;5010906;28;20053;-63
2021/12/21 08:04:07;;;;;;;14.50;7.18;;;;;;;;;;4975700;28;20116;-64
2021/12/21 08:06:34;;;;;;;11.82;7.35;;;;;;;;;;5010230;28;20504;-64
2021/12/21 08:09:01;;;;;;;13.77;7.20;;;;;;;;;;5010960;28;20057;-64
2021/12/21 08:14:05;;;;;;;12.20;8.18;;;;;;;;;;5010604;28;20046;-64
2021/12/21 08:16:32;;;;;;;14.13;8.90;;;;;;;;;;5010561;28;20056;-63
2021/12/21 08:18:58;;;;;;;15.00;7.60;;;;;;;;;;5010668;28;20037;-63
2021/12/21 08:21:25;;;;;;;15.88;8.75;;;;;;;;;;5011136;28;20138;-64
2021/12/21 08:23:51;;;;;;;11.15;7.63;;;;;;;;;;5010798;28;20096;-63
2021/12/21 08:26:17;;;;;;;13.43;7.35;;;;;;;;;;5009942;28;20049;-64
2021/12/21 08:28:43;;;;;;;14.07;7.00;;;;;;;;;;5010560;28;20138;-64
2021/12/21 08:31:13;;;;;;;11.02;6.10;;;;;;;;;;5010977;28;20049;-64
2021/12/21 08:33:40;;;;;;;12.80;6.78;;;;;;;;;;5010059;28;20052;-64
2021/12/21 08:36:07;;;;;;;14.68;6.90;;;;;;;;;;5010773;28;20037;-64
2021/12/21 08:38:36;;;;;;;11.90;6.95;;;;;;;;;;5010514;28;20045;-65
2021/12/21 08:41:03;;;;;;;11.20;6.55;;;;;;;;;;5010151;28;20076;-65
2021/12/21 08:43:31;;;;;;;11.70;6.20;;;;;;;;;;5010308;28;20037;-63
2021/12/21 08:45:57;;;;;;;12.48;6.85;;;;;;;;;;5009995;28;20058;-65
2021/12/21 08:48:25;;;;;;;10.60;5.88;;;;;;;;;;5009693;28;20065;-65
2021/12/21 08:50:53;;;;;;;9.90;5.97;;;;;;;;;;5010598;28;20049;-64
2021/12/21 08:53:20;;;;;;;13.18;7.00;;;;;;;;;;5010671;28;20065;-66
2021/12/21 08:55:46;;;;;;;15.15;7.13;;;;;;;;;;5009595;28;20108;-64
2021/12/21 08:58:13;;;;;;;13.68;7.05;;;;;;;;;;5010672;28;20505;-65
2021/12/21 09:00:40;;;;;;;13.13;7.55;;;;;;;;;;5010455;28;20049;-65
2021/12/21 09:03:07;;;;;;;13.70;8.20;;;;;;;;;;5009777;28;20049;-65
2021/12/21 09:05:33;;;;;;;17.45;9.82;;;;;;;;;;5010525;28;20076;-64
2021/12/21 09:08:00;;;;;;;16.23;9.50;;;;;;;;;;5010389;28;20065;-64
2021/12/21 09:10:28;;;;;;;15.93;9.20;;;;;;;;;;5009875;28;20460;-64
2021/12/21 09:12:55;;;;;;;20.90;10.55;;;;;;;;;;5010333;28;20045;-65
2021/12/21 09:15:22;;;;;;;20.45;11.10;;;;;;;;;;5010476;28;20050;-66
2021/12/21 09:17:48;;;;;;;22.48;11.27;;;;;;;;;;5009474;28;20041;-65
2021/12/21 09:20:16;;;;;;;23.08;11.20;;;;;;;;;;5014450;28;20053;-65
2021/12/21 09:22:43;;;;;;;15.40;10.07;;;;;;;;;;5013465;28;20107;-64
2021/12/21 09:25:09;;;;;;;16.10;9.60;;;;;;;;;;5012943;28;20748;-67
2021/12/21 09:27:35;;;;;;;15.02;9.68;;;;;;;;;;4996492;28;20087;-65
2021/12/21 09:30:01;;;;;;;12.70;8.93;;;;;;;;;;5013790;28;20058;-65
2021/12/21 09:32:27;;;;;;;18.92;10.95;;;;;;;;;;5013086;28;20077;-65
2021/12/21 09:34:54;;;;;;;19.25;10.88;;;;;;;;;;5013923;28;20472;-64
2021/12/21 09:37:20;;;;;;;22.50;12.43;;;;;;;;;;5013482;28;20038;-66
2021/12/21 09:39:51;;;;;;;22.23;12.93;;;;;;;;;;5013447;28;20038;-65
2021/12/21 09:42:18;;;;;;;24.23;12.65;;;;;;;;;;5013965;28;20117;-65
2021/12/21 09:44:45;;;;;;;24.83;12.98;;;;;;;;;;5013636;28;20129;-65
2021/12/21 09:47:11;;;;;;;27.88;13.50;;;;;;;;;;5012914;28;20653;-63
2021/12/21 09:49:38;;;;;;;21.58;13.95;;;;;;;;;;5014198;28;20065;-64
2021/12/21 09:52:05;;;;;;;23.08;12.90;;;;;;;;;;5012871;28;20053;-64
2021/12/21 09:54:33;;;;;;;20.48;12.65;;;;;;;;;;5011657;28;20038;-64
2021/12/21 09:56:59;;;;;;;18.02;11.85;;;;;;;;;;5013477;28;20042;-66
2021/12/21 09:59:25;;;;;;;26.90;13.52;;;;;;;;;;5013289;28;20041;-65
2021/12/21 10:01:51;;;;;;;28.98;14.77;;;;;;;;;;5012856;28;20037;-64
2021/12/21 10:04:18;;;;;;;33.58;17.20;;;;;;;;;;5013540;28;20046;-63
2021/12/21 10:06:49;;;;;;;39.65;20.08;;;;;;;;;;5012839;28;20045;-63
2021/12/21 10:09:15;;;;;;;39.10;20.08;;;;;;;;;;5005453;28;20168;-63
2021/12/21 10:11:43;;;;;;;40.25;20.73;;;;;;;;;;5013789;28;20492;-65
2021/12/21 10:14:09;;;;;;;32.25;18.00;;;;;;;;;;5013376;28;20065;-64
2021/12/21 10:16:35;;;;;;;30.23;17.30;;;;;;;;;;5012632;28;20046;-63
2021/12/21 10:19:01;;;;;;;28.52;13.93;;;;;;;;;;5013048;28;20041;-65
2021/12/21 10:21:27;;;;;;;26.67;13.05;;;;;;;;;;5012879;28;20401;-65
2021/12/21 10:23:54;;;;;;;22.33;13.05;;;;;;;;;;5012566;28;20053;-65
2021/12/21 10:26:29;;;;;;;26.52;14.27;;;;;;;;;;5013112;28;20078;-66
2021/12/21 10:29:00;;;;;;;23.92;13.18;;;;;;;;;;5012628;28;20081;-65
2021/12/21 10:31:36;;;;;;;26.38;13.90;;;;;;;;;;5011706;28;20117;-64
2021/12/21 10:34:03;;;;;;;26.77;14.52;;;;;;;;;;5012893;28;20120;-64
2021/12/21 10:36:30;;;;;;;18.92;13.38;;;;;;;;;;5013409;28;20081;-63
2021/12/21 10:38:57;;;;;;;27.20;13.27;;;;;;;;;;5012505;28;20069;-63
2021/12/21 10:41:23;;;;;;;29.05;15.23;;;;;;;;;;4994944;28;20400;-63
2021/12/21 10:44:16;;;;;;;22.90;13.65;;;;;;;;;;5012625;28;20042;-65
2021/12/21 10:46:44;;;;;;;24.38;13.85;;;;;;;;;;5007545;28;20195;-64
2021/12/21 10:49:11;;;;;;;21.90;13.55;;;;;;;;;;5012984;28;20042;-64
2021/12/21 10:51:38;;;;;;;24.27;13.02;;;;;;;;;;5012622;28;20080;-64
2021/12/21 10:54:04;;;;;;;24.02;12.93;;;;;;;;;;5011425;28;20033;-64
2021/12/21 10:56:30;;;;;;;23.60;13.88;;;;;;;;;;5012549;28;20041;-67
2021/12/21 10:58:56;;;;;;;24.48;12.73;;;;;;;;;;5011642;28;20044;-64
2021/12/21 11:01:27;;;;;;;19.52;12.90;;;;;;;;;;5011768;28;20129;-66
2021/12/21 11:03:56;;;;;;;24.27;11.82;;;;;;;;;;5012106;28;20050;-65
2021/12/21 11:06:25;;;;;;;20.35;10.63;;;;;;;;;;5012003;28;20046;-65
2021/12/21 11:08:54;;;;;;;19.52;10.07;;;;;;;;;;5011728;28;20113;-64
2021/12/21 11:11:47;;;;;;;22.73;10.73;;;;;;;;;;4993668;28;20046;-66
2021/12/21 11:14:15;;;;;;;26.48;12.63;;;;;;;;;;5011922;28;20046;-65
2021/12/21 11:16:45;;;;;;;22.80;10.93;;;;;;;;;;5012068;28;20042;-65
2021/12/21 11:19:12;;;;;;;23.67;10.60;;;;;;;;;;5011850;28;20183;-65
2021/12/21 11:21:39;;;;;;;21.88;11.25;;;;;;;;;;5010908;28;20049;-65
2021/12/21 11:24:06;;;;;;;19.77;9.63;;;;;;;;;;5009979;28;20128;-65
2021/12/21 11:26:32;;;;;;;20.52;9.77;;;;;;;;;;5009999;28;20041;-65
2021/12/21 11:29:01;;;;;;;15.75;8.93;;;;;;;;;;5010942;28;20128;-66
2021/12/21 11:31:28;;;;;;;21.83;11.35;;;;;;;;;;4992534;28;20046;-66
2021/12/21 11:33:57;;;;;;;19.10;10.45;;;;;;;;;;5011156;28;20041;-64
2021/12/21 11:39:09;;;;;;;23.00;11.27;;;;;;;;;;5010688;28;20099;-65
2021/12/21 11:41:36;;;;;;;21.98;12.77;;;;;;;;;;5011691;28;20713;-65
2021/12/21 11:44:11;;;;;;;19.05;11.55;;;;;;;;;;4994363;28;20054;-65
2021/12/21 11:46:58;;;;;;;21.63;11.32;;;;;;;;;;5011256;28;20050;-64
2021/12/21 11:49:47;;;;;;;17.52;8.88;;;;;;;;;;5012239;28;20057;-64
2021/12/21 11:52:15;;;;;;;21.67;10.75;;;;;;;;;;5010552;28;20400;-64
2021/12/21 11:54:45;;;;;;;21.40;12.27;;;;;;;;;;5011246;28;20512;-64
2021/12/21 11:57:11;;;;;;;23.20;12.88;;;;;;;;;;5011764;28;20044;-66
2021/12/21 11:59:37;;;;;;;19.73;12.15;;;;;;;;;;5011231;28;20500;-65
2021/12/21 12:02:04;;;;;;;23.52;13.30;;;;;;;;;;5010989;28;20044;-64
2021/12/21 12:04:33;;;;;;;26.83;11.75;;;;;;;;;;4993626;28;20045;-64
2021/12/21 12:06:59;;;;;;;23.92;12.90;;;;;;;;;;5011131;28;20121;-64
2021/12/21 12:09:33;;;;;;;20.45;12.05;;;;;;;;;;5011677;28;20115;-64
2021/12/21 12:12:06;;;;;;;24.63;11.98;;;;;;;;;;4993399;28;20050;-64
2021/12/21 12:14:35;;;;;;;24.48;12.25;;;;;;;;;;5010740;28;20037;-65
2021/12/21 12:17:05;;;;;;;20.63;12.50;;;;;;;;;;5012007;28;20046;-65
2021/12/21 12:19:35;;;;;;;19.20;11.70;;;;;;;;;;4987147;28;20053;-65
2021/12/21 12:22:03;;;;;;;20.52;12.45;;;;;;;;;;5010754;28;20046;-66
2021/12/21 12:24:34;;;;;;;24.55;11.55;;;;;;;;;;5010818;28;20044;-65
2021/12/21 12:27:02;;;;;;;23.20;12.20;;;;;;;;;;5011502;28;20485;-65
2021/12/21 12:29:28;;;;;;;19.90;11.60;;;;;;;;;;5010579;28;20058;-67
2021/12/21 12:31:59;;;;;;;21.48;11.57;;;;;;;;;;4993621;28;20133;-65
2021/12/21 12:34:27;;;;;;;25.05;11.02;;;;;;;;;;5010447;28;20049;-65
2021/12/21 12:36:55;;;;;;;26.35;11.43;;;;;;;;;;5010761;28;20050;-66
2021/12/21 12:39:27;;;;;;;19.17;10.80;;;;;;;;;;4993334;28;20046;-66
2021/12/21 12:41:53;;;;;;;20.50;11.48;;;;;;;;;;5011268;28;20049;-65
2021/12/21 12:44:20;;;;;;;22.38;12.23;;;;;;;;;;5009818;28;20117;-66
2021/12/21 12:46:52;;;;;;;22.40;12.55;;;;;;;;;;5011248;28;20373;-66
2021/12/21 12:49:22;;;;;;;20.77;11.15;;;;;;;;;;5011435;28;20140;-67
2021/12/21 12:51:49;;;;;;;18.50;12.27;;;;;;;;;;5010670;28;20484;-67
2021/12/21 12:54:21;;;;;;;20.92;11.55;;;;;;;;;;5015928;28;20038;-64
2021/12/21 12:56:48;;;;;;;17.15;9.98;;;;;;;;;;5017778;28;20068;-67
2021/12/21 12:59:15;;;;;;;19.55;11.05;;;;;;;;;;5016635;28;20046;-67
2021/12/21 13:01:43;;;;;;;21.52;11.43;;;;;;;;;;5017776;28;20044;-65
2021/12/21 13:04:12;;;;;;;19.83;11.05;;;;;;;;;;5017542;28;20096;-66
2021/12/21 13:06:38;;;;;;;19.10;11.07;;;;;;;;;;5016690;28;20053;-66
2021/12/21 13:09:05;;;;;;;18.27;10.85;;;;;;;;;;5017835;28;20045;-65
2021/12/21 13:11:33;;;;;;;23.15;11.60;;;;;;;;;;5017903;28;20113;-65
2021/12/21 13:14:00;;;;;;;20.88;11.10;;;;;;;;;;5010123;28;20041;-66
2021/12/21 13:16:31;;;;;;;17.75;10.15;;;;;;;;;;5016885;28;20046;-65
2021/12/21 13:18:58;;;;;;;18.17;11.20;;;;;;;;;;5017398;28;20128;-68
2021/12/21 13:21:32;;;;;;;17.85;10.60;;;;;;;;;;5016349;28;20049;-67
2021/12/21 13:24:04;;;;;;;13.40;9.20;;;;;;;;;;5017060;28;20045;-67
2021/12/21 13:26:37;;;;;;;19.50;10.93;;;;;;;;;;4998945;28;20050;-69
2021/12/21 13:29:05;;;;;;;22.35;9.63;;;;;;;;;;5015780;28;20053;-69
2021/12/21 13:31:31;;;;;;;18.73;9.48;;;;;;;;;;5017212;28;20113;-66
2021/12/21 13:33:59;;;;;;;19.08;10.23;;;;;;;;;;5017314;28;20084;-66
2021/12/21 13:36:31;;;;;;;16.05;9.30;;;;;;;;;;5016127;28;20049;-67
2021/12/21 13:38:57;;;;;;;14.45;9.13;;;;;;;;;;5017239;28;20056;-64
2021/12/21 13:41:23;;;;;;;14.95;9.02;;;;;;;;;;5017273;28;20050;-66
2021/12/21 13:44:00;;;;;;;15.80;9.57;;;;;;;;;;5016641;28;20042;-65
2021/12/21 13:46:32;;;;;;;14.75;9.45;;;;;;;;;;5016528;28;20385;-65
2021/12/21 13:48:58;;;;;;;22.00;9.25;;;;;;;;;;5017453;28;20101;-65
2021/12/21 13:51:25;;;;;;;16.70;8.73;;;;;;;;;;5016617;28;20103;-66
2021/12/21 13:53:54;;;;;;;14.68;9.02;;;;;;;;;;5017263;28;20042;-65
2021/12/21 13:56:22;;;;;;;12.65;9.15;;;;;;;;;;5016767;28;20045;-66
2021/12/21 13:58:48;;;;;;;16.85;9.63;;;;;;;;;;5016293;28;20042;-65
2021/12/21 14:01:25;;;;;;;18.67;9.60;;;;;;;;;;5017092;28;20045;-65
2021/12/21 14:03:57;;;;;;;17.30;9.68;;;;;;;;;;5008865;28;20049;-65
2021/12/21 14:06:24;;;;;;;14.82;9.18;;;;;;;;;;5013236;28;20048;-65
2021/12/21 14:08:54;;;;;;;16.08;8.90;;;;;;;;;;5013872;28;20052;-66
2021/12/21 14:11:21;;;;;;;14.73;9.10;;;;;;;;;;5014178;28;20081;-65
2021/12/21 14:13:48;;;;;;;15.35;9.30;;;;;;;;;;5013370;28;20057;-65
2021/12/21 14:16:17;;;;;;;15.60;8.90;;;;;;;;;;5013994;28;20037;-65
2021/12/21 14:18:46;;;;;;;16.55;9.13;;;;;;;;;;5013364;28;20065;-65
2021/12/21 14:21:14;;;;;;;14.20;9.02;;;;;;;;;;5012808;28;20046;-65
2021/12/21 14:23:41;;;;;;;20.25;9.00;;;;;;;;;;5013506;28;20042;-65
2021/12/21 14:26:15;;;;;;;16.92;8.93;;;;;;;;;;5013672;28;20042;-65
2021/12/21 14:28:50;;;;;;;15.90;8.68;;;;;;;;;;5012508;28;20075;-65
2021/12/21 14:31:18;;;;;;;21.65;9.57;;;;;;;;;;5012871;28;20050;-65
2021/12/21 14:33:49;;;;;;;13.43;8.85;;;;;;;;;;5013398;28;20696;-65
2021/12/21 14:36:18;;;;;;;15.10;8.52;;;;;;;;;;4995152;28;20056;-64
2021/12/21 14:38:59;;;;;;;17.13;9.95;;;;;;;;;;5013193;28;20052;-65
2021/12/21 14:41:26;;;;;;;17.80;10.25;;;;;;;;;;5013408;28;20049;-65
2021/12/21 14:44:07;;;;;;;26.17;10.40;;;;;;;;;;5012503;28;20473;-66
2021/12/21 14:46:35;;;;;;;14.88;9.48;;;;;;;;;;5012347;28;20049;-65
2021/12/21 14:49:08;;;;;;;20.40;9.63;;;;;;;;;;5013675;28;20046;-65
2021/12/21 14:51:49;;;;;;;17.67;9.85;;;;;;;;;;5012220;28;20048;-67
2021/12/21 14:54:30;;;;;;;17.55;9.50;;;;;;;;;;4995770;28;20053;-67
2021/12/21 14:57:07;;;;;;;14.77;9.40;;;;;;;;;;4994982;28;20373;-67
2021/12/21 14:59:34;;;;;;;23.02;9.30;;;;;;;;;;5012739;28;20049;-67
2021/12/21 15:02:05;;;;;;;15.20;9.43;;;;;;;;;;5011920;28;20038;-67
2021/12/21 15:04:32;;;;;;;16.67;9.90;;;;;;;;;;5012158;28;20603;-67
2021/12/21 15:06:59;;;;;;;13.65;8.85;;;;;;;;;;5012530;28;20083;-65
2021/12/21 15:09:25;;;;;;;22.33;10.00;;;;;;;;;;5013011;28;20042;-66
2021/12/21 15:11:54;;;;;;;19.42;10.30;;;;;;;;;;4993868;28;20037;-65
2021/12/21 15:14:21;;;;;;;16.63;9.27;;;;;;;;;;5012863;28;20042;-67
2021/12/21 15:16:47;;;;;;;15.75;9.40;;;;;;;;;;5012030;28;20049;-67
2021/12/21 15:19:13;;;;;;;13.23;8.60;;;;;;;;;;5012205;28;20053;-65
2021/12/21 15:21:40;;;;;;;19.60;10.07;;;;;;;;;;5012410;28;20038;-65
2021/12/21 15:24:06;;;;;;;16.42;9.10;;;;;;;;;;5012390;28;20042;-66
2021/12/21 15:26:32;;;;;;;16.42;9.20;;;;;;;;;;5011572;28;20062;-66
2021/12/21 15:28:59;;;;;;;13.80;9.07;;;;;;;;;;5012282;28;20065;-66
2021/12/21 15:31:25;;;;;;;17.23;9.05;;;;;;;;;;5012071;28;20030;-67
2021/12/21 15:33:51;;;;;;;15.43;9.38;;;;;;;;;;5011809;28;20037;-68
2021/12/21 15:36:17;;;;;;;13.80;9.02;;;;;;;;;;5011830;28;20423;-67
2021/12/21 15:38:43;;;;;;;14.82;9.60;;;;;;;;;;5011911;28;20042;-65
2021/12/21 15:41:10;;;;;;;18.67;9.07;;;;;;;;;;5012157;28;20049;-66
2021/12/21 15:43:39;;;;;;;19.80;10.55;;;;;;;;;;5011663;28;20041;-67
2021/12/21 15:46:06;;;;;;;17.83;9.40;;;;;;;;;;4994595;28;20085;-67
2021/12/21 15:48:33;;;;;;;19.27;10.75;;;;;;;;;;5012227;28;20085;-65
2021/12/21 15:50:59;;;;;;;17.50;11.35;;;;;;;;;;5011635;28;20096;-65